Аэропорт: Николаев. Николаев

ICAO: UKON

METAR:
2021-10-23 01:00:00
UKON 230100Z 28001MPS CAVOK 11/09 Q1015 NOSIG
METAR:
2021-10-22 17:02:00
TAF UKON 221702Z 2218/2303 20003MPS 2100 BR SCT004 SCT007 TEMPO 2221/2303 0300 FG VV002